Time;durP1;ratioP1;P1;durP2;ratioP2;P2;SDS_P1;SDS_P2;PMS_P1;PMS_P2;Temp;Humidity;BMP_temperature;BMP_pressure;BME280_temperature;BME280_humidity;BME280_pressure;Samples;Min_cycle;Max_cycle;Signal;HPM_P1;HPM_P2
2022/10/18 00:01:45;;;;;;;;;;;15.20;99.90;;;;;;4960203;28;19921;-77
2022/10/18 00:04:11;;;;;;;;;;;15.20;99.90;;;;;;4959824;28;20501;-77
2022/10/18 00:06:36;;;;;;;;;;;15.20;99.90;;;;;;4959312;28;20009;-77
2022/10/18 00:09:02;;;;;;;;;;;15.20;99.90;;;;;;4971096;28;19989;-77
2022/10/18 00:11:27;;;;;;;;;;;15.20;99.90;;;;;;4961217;28;19910;-77
2022/10/18 00:13:54;;;;;;;;;;;15.10;99.90;;;;;;4967280;28;20407;-77
2022/10/18 00:16:19;;;;;;;;;;;15.10;99.90;;;;;;4967060;28;19922;-76
2022/10/18 00:18:47;;;;;;;;;;;15.00;99.90;;;;;;4959992;28;19921;-77
2022/10/18 00:21:14;;;;;;;;;;;15.00;99.90;;;;;;4957950;28;19940;-77
2022/10/18 00:23:40;;;;;;;;;;;14.90;99.90;;;;;;4961237;28;20000;-77
2022/10/18 00:26:05;;;;;;;;;;;14.90;99.90;;;;;;4961224;28;20025;-77
2022/10/18 00:28:32;;;;;;;;;;;15.00;99.90;;;;;;4969016;28;19910;-77
2022/10/18 00:31:07;;;;;;;;;;;15.10;99.90;;;;;;4962676;28;19918;-77
2022/10/18 00:33:32;;;;;;;;;;;15.30;99.90;;;;;;4962814;28;19916;-77
2022/10/18 00:35:59;;;;;;;;;;;15.30;99.90;;;;;;4967700;28;19910;-77
2022/10/18 00:38:24;;;;;;;;;;;15.20;99.90;;;;;;4958903;28;19965;-77
2022/10/18 00:40:49;;;;;;;;;;;15.30;99.90;;;;;;4962046;28;19914;-77
2022/10/18 00:43:16;;;;;;;;;;;15.40;99.90;;;;;;4964112;28;19914;-77
2022/10/18 00:45:42;;;;;;;;;;;15.70;99.90;;;;;;4964178;28;20381;-77
2022/10/18 00:48:08;;;;;;;;;;;16.10;99.90;;;;;;4963832;28;19910;-77
2022/10/18 00:50:33;;;;;;;;;;;16.30;99.90;;;;;;4966863;28;19914;-77
2022/10/18 00:53:01;;;;;;;;;;;16.40;99.90;;;;;;4963164;28;19914;-77
2022/10/18 00:55:27;;;;;;;;;;;16.40;99.90;;;;;;4962337;28;19911;-77
2022/10/18 00:57:52;;;;;;;;;;;16.40;99.90;;;;;;4959634;28;19910;-77
2022/10/18 01:00:18;;;;;;;;;;;16.40;99.90;;;;;;4966524;28;19965;-79
2022/10/18 01:02:45;;;;;;;;;;;16.50;99.90;;;;;;4968204;28;19937;-77
2022/10/18 01:05:11;;;;;;;;;;;16.50;99.90;;;;;;4962650;28;20012;-77
2022/10/18 01:07:56;;;;;;;;;;;16.60;99.90;;;;;;4963628;28;19910;-77
2022/10/18 01:10:21;;;;;;;;;;;16.50;99.90;;;;;;4966091;28;19954;-77
2022/10/18 01:13:06;;;;;;;;;;;16.60;99.90;;;;;;4969223;28;19942;-77
2022/10/18 01:15:34;;;;;;;;;;;16.70;99.90;;;;;;4971183;28;19917;-77
2022/10/18 01:18:18;;;;;;;;;;;16.70;99.90;;;;;;4965318;28;20325;-77
2022/10/18 01:20:55;;;;;;;;;;;16.70;99.90;;;;;;4970743;28;19945;-76
2022/10/18 01:23:46;;;;;;;;;;;16.80;99.90;;;;;;4962130;28;19910;-77
2022/10/18 01:26:31;;;;;;;;;;;16.80;99.90;;;;;;4964627;28;19984;-76
2022/10/18 01:29:15;;;;;;;;;;;16.90;99.90;;;;;;4965674;28;19913;-77
2022/10/18 01:31:45;;;;;;;;;;;16.90;99.90;;;;;;4960199;28;19918;-77
2022/10/18 01:34:12;;;;;;;;;;;16.80;99.90;;;;;;4963574;28;20005;-77
2022/10/18 01:36:42;;;;;;;;;;;16.80;99.90;;;;;;4965771;28;20374;-77
2022/10/18 01:39:11;;;;;;;;;;;16.80;99.90;;;;;;4965750;28;19910;-77
2022/10/18 01:41:37;;;;;;;;;;;16.80;99.90;;;;;;4962128;28;19914;-77
2022/10/18 01:44:04;;;;;;;;;;;16.80;99.90;;;;;;4962023;28;19986;-77
2022/10/18 01:46:30;;;;;;;;;;;16.80;99.90;;;;;;4963417;28;20348;-77
2022/10/18 01:48:55;;;;;;;;;;;16.80;99.90;;;;;;4966730;28;19910;-77
2022/10/18 01:51:29;;;;;;;;;;;16.80;99.90;;;;;;4971422;28;19916;-77
2022/10/18 01:53:54;;;;;;;;;;;16.80;99.90;;;;;;4964397;28;20365;-77
2022/10/18 01:56:29;;;;;;;;;;;16.80;99.90;;;;;;4968174;28;20005;-77
2022/10/18 01:59:03;;;;;;;;;;;16.80;99.90;;;;;;4968477;28;19972;-77
2022/10/18 02:01:36;;;;;;;;;;;16.80;99.90;;;;;;4962994;28;19917;-77
2022/10/18 02:04:05;;;;;;;;;;;16.70;99.90;;;;;;4967524;28;19933;-76
2022/10/18 02:06:34;;;;;;;;;;;16.70;99.90;;;;;;4959212;28;19914;-77
2022/10/18 02:09:03;;;;;;;;;;;16.70;99.90;;;;;;4957996;28;19922;-77
2022/10/18 02:11:29;;;;;;;;;;;16.60;99.90;;;;;;4960779;28;19917;-77
2022/10/18 02:14:10;;;;;;;;;;;16.50;99.90;;;;;;4961882;28;20353;-77
2022/10/18 02:16:48;;;;;;;;;;;16.50;99.90;;;;;;4964933;28;19918;-78
2022/10/18 02:19:16;;;;;;;;;;;16.40;99.90;;;;;;4962412;28;19914;-77
2022/10/18 02:21:42;;;;;;;;;;;16.30;99.90;;;;;;4967248;28;19918;-78
2022/10/18 02:24:09;;;;;;;;;;;16.30;99.90;;;;;;4974297;28;20351;-78
2022/10/18 02:26:34;;;;;;;;;;;16.20;99.90;;;;;;4956476;28;20009;-78
2022/10/18 02:29:00;;;;;;;;;;;16.20;99.90;;;;;;4969113;28;19997;-77
2022/10/18 02:31:29;;;;;;;;;;;16.20;99.90;;;;;;4962167;28;20389;-78
2022/10/18 02:33:59;;;;;;;;;;;16.40;99.90;;;;;;4955975;28;20013;-77
2022/10/18 02:36:36;;;;;;;;;;;16.50;99.90;;;;;;4965577;28;19948;-78
2022/10/18 02:39:03;;;;;;;;;;;16.50;99.90;;;;;;4960141;28;19910;-77
2022/10/18 02:41:29;;;;;;;;;;;16.60;99.90;;;;;;4955841;28;19910;-77
2022/10/18 02:43:55;;;;;;;;;;;16.70;99.90;;;;;;4957078;28;19910;-77
2022/10/18 02:46:20;;;;;;;;;;;16.70;99.90;;;;;;4962423;28;19914;-76
2022/10/18 02:48:45;;;;;;;;;;;16.80;99.90;;;;;;4965076;28;20421;-77
2022/10/18 02:51:11;;;;;;;;;;;16.80;99.90;;;;;;4969652;28;19910;-76
2022/10/18 02:53:36;;;;;;;;;;;16.80;99.90;;;;;;4961641;28;20389;-77
2022/10/18 02:56:02;;;;;;;;;;;16.70;99.90;;;;;;4961909;28;20388;-75
2022/10/18 02:58:27;;;;;;;;;;;16.70;99.90;;;;;;4966896;28;19918;-76
2022/10/18 03:00:53;;;;;;;;;;;16.70;99.90;;;;;;4966276;28;20783;-76
2022/10/18 03:03:18;;;;;;;;;;;16.70;99.90;;;;;;4964946;28;20009;-77
2022/10/18 03:05:43;;;;;;;;;;;16.70;99.90;;;;;;4961071;28;20272;-76
2022/10/18 03:08:09;;;;;;;;;;;16.80;99.90;;;;;;4958419;28;19910;-76
2022/10/18 03:10:34;;;;;;;;;;;16.80;99.90;;;;;;4960513;28;19910;-76
2022/10/18 03:13:00;;;;;;;;;;;16.90;99.90;;;;;;4954264;28;19918;-76
2022/10/18 03:15:25;;;;;;;;;;;16.90;99.90;;;;;;4958733;28;19929;-76
2022/10/18 03:17:50;;;;;;;;;;;16.90;99.90;;;;;;4966300;28;19917;-75
2022/10/18 03:20:16;;;;;;;;;;;16.90;99.90;;;;;;4962783;28;20543;-77
2022/10/18 03:22:41;;;;;;;;;;;16.90;99.90;;;;;;4962753;28;19910;-76
2022/10/18 03:25:07;;;;;;;;;;;17.00;99.90;;;;;;4965948;28;19937;-76
2022/10/18 03:27:32;;;;;;;;;;;16.90;99.90;;;;;;4957586;28;19918;-75
2022/10/18 03:29:58;;;;;;;;;;;16.90;99.90;;;;;;4968784;28;19909;-75
2022/10/18 03:32:24;;;;;;;;;;;16.80;99.90;;;;;;4972847;28;19984;-75
2022/10/18 03:34:49;;;;;;;;;;;16.80;99.90;;;;;;4962272;28;20332;-76
2022/10/18 03:37:14;;;;;;;;;;;16.80;99.90;;;;;;4964596;28;19941;-76
2022/10/18 03:39:40;;;;;;;;;;;16.80;99.90;;;;;;4967728;28;19952;-76
2022/10/18 03:42:05;;;;;;;;;;;16.80;99.90;;;;;;4958699;28;19910;-76
2022/10/18 03:44:31;;;;;;;;;;;16.70;99.90;;;;;;4967890;28;19953;-76
2022/10/18 03:46:56;;;;;;;;;;;16.70;99.90;;;;;;4956527;28;20004;-76
2022/10/18 03:49:21;;;;;;;;;;;16.60;99.90;;;;;;4961646;28;20280;-76
2022/10/18 03:51:47;;;;;;;;;;;16.60;99.90;;;;;;4967257;28;19990;-76
2022/10/18 03:54:12;;;;;;;;;;;16.60;99.90;;;;;;4961072;28;19921;-76
2022/10/18 03:56:38;;;;;;;;;;;16.60;99.90;;;;;;4962977;28;19910;-76
2022/10/18 03:59:03;;;;;;;;;;;16.50;99.90;;;;;;4966708;28;20288;-75
2022/10/18 04:01:29;;;;;;;;;;;16.50;99.90;;;;;;4966703;28;19917;-76
2022/10/18 04:03:54;;;;;;;;;;;16.50;99.90;;;;;;4961344;28;20013;-75
2022/10/18 04:06:20;;;;;;;;;;;16.50;99.90;;;;;;4966590;28;19960;-76
2022/10/18 04:08:45;;;;;;;;;;;16.40;99.90;;;;;;4965500;28;20288;-75
2022/10/18 04:11:11;;;;;;;;;;;16.30;99.90;;;;;;4964691;28;19918;-76
2022/10/18 04:13:36;;;;;;;;;;;16.30;99.90;;;;;;4961363;28;19965;-76
2022/10/18 04:16:02;;;;;;;;;;;16.20;99.90;;;;;;4958669;28;19910;-76
2022/10/18 04:18:27;;;;;;;;;;;16.20;99.90;;;;;;4964899;28;19997;-76
2022/10/18 04:20:53;;;;;;;;;;;16.20;99.90;;;;;;4963038;28;19920;-76
2022/10/18 04:23:18;;;;;;;;;;;16.20;99.90;;;;;;4962407;28;20005;-76
2022/10/18 04:25:44;;;;;;;;;;;16.30;99.90;;;;;;4958836;28;19969;-76
2022/10/18 04:28:09;;;;;;;;;;;16.30;99.90;;;;;;4961004;28;20292;-78
2022/10/18 04:30:35;;;;;;;;;;;16.20;99.90;;;;;;4960190;28;19953;-77
2022/10/18 04:33:00;;;;;;;;;;;16.20;99.90;;;;;;4953248;28;19921;-77
2022/10/18 04:35:27;;;;;;;;;;;16.20;99.90;;;;;;4964455;28;19920;-77
2022/10/18 04:37:52;;;;;;;;;;;16.20;99.90;;;;;;4961349;28;19926;-77
2022/10/18 04:40:18;;;;;;;;;;;16.10;99.90;;;;;;4963821;28;19918;-78
2022/10/18 04:42:44;;;;;;;;;;;16.10;99.90;;;;;;4960077;28;19917;-78
2022/10/18 04:45:09;;;;;;;;;;;16.00;99.90;;;;;;4964260;28;20270;-77
2022/10/18 04:47:35;;;;;;;;;;;15.90;99.90;;;;;;4962591;28;19968;-77
2022/10/18 04:50:00;;;;;;;;;;;15.90;99.90;;;;;;4950075;28;19906;-77
2022/10/18 04:52:26;;;;;;;;;;;15.80;99.90;;;;;;4950860;28;19913;-78
2022/10/18 04:54:51;;;;;;;;;;;15.70;99.90;;;;;;4962720;28;19993;-76
2022/10/18 04:57:17;;;;;;;;;;;15.70;99.90;;;;;;4963746;28;20345;-77
2022/10/18 04:59:42;;;;;;;;;;;15.80;99.90;;;;;;4962017;28;19918;-77
2022/10/18 05:02:07;;;;;;;;;;;15.80;99.90;;;;;;4958424;28;19916;-78
2022/10/18 05:04:33;;;;;;;;;;;15.80;99.90;;;;;;4967241;28;19924;-79
2022/10/18 05:06:58;;;;;;;;;;;15.70;99.90;;;;;;4961185;28;19918;-84
2022/10/18 05:09:24;;;;;;;;;;;15.80;99.90;;;;;;4961201;28;19910;-82
2022/10/18 05:11:49;;;;;;;;;;;15.70;99.90;;;;;;4959766;28;19910;-79
2022/10/18 05:14:15;;;;;;;;;;;15.70;99.90;;;;;;4966123;28;19941;-81
2022/10/18 05:16:40;;;;;;;;;;;15.70;99.90;;;;;;4955458;28;19918;-80
2022/10/18 05:19:05;;;;;;;;;;;15.60;99.90;;;;;;4958054;28;19918;-81
2022/10/18 05:21:31;;;;;;;;;;;15.60;99.90;;;;;;4961555;28;20392;-79
2022/10/18 05:23:57;;;;;;;;;;;15.60;99.90;;;;;;4966122;28;19921;-79
2022/10/18 05:26:22;;;;;;;;;;;15.60;99.90;;;;;;4957124;28;19922;-80
2022/10/18 05:28:48;;;;;;;;;;;15.60;99.90;;;;;;4963715;28;19914;-79
2022/10/18 05:31:37;;;;;;;;;;;15.50;99.90;;;;;;4963721;28;19995;-76
2022/10/18 05:34:02;;;;;;;;;;;15.50;99.90;;;;;;4957862;28;20014;-76
2022/10/18 05:36:37;;;;;;;;;;;15.50;99.90;;;;;;4960504;28;20376;-77
2022/10/18 05:39:04;;;;;;;;;;;15.40;99.90;;;;;;4959154;28;19993;-77
2022/10/18 05:41:29;;;;;;;;;;;15.30;99.90;;;;;;4968118;28;19907;-77
2022/10/18 05:43:54;;;;;;;;;;;15.20;99.90;;;;;;4957212;28;20737;-77
2022/10/18 05:46:20;;;;;;;;;;;15.30;99.90;;;;;;4954527;28;19965;-76
2022/10/18 05:48:49;;;;;;;;;;;15.40;99.90;;;;;;4974930;28;19918;-77
2022/10/18 05:51:14;;;;;;;;;;;15.30;99.90;;;;;;4965261;28;19914;-77
2022/10/18 05:53:39;;;;;;;;;;;15.30;99.90;;;;;;4966076;28;21884;-77
2022/10/18 05:56:05;;;;;;;;;;;15.30;99.90;;;;;;4968076;28;19917;-77
2022/10/18 05:58:34;;;;;;;;;;;15.50;99.90;;;;;;4965958;28;19965;-76
2022/10/18 06:01:13;;;;;;;;;;;15.50;99.90;;;;;;4966729;28;19914;-76
2022/10/18 06:03:41;;;;;;;;;;;15.60;99.90;;;;;;4963624;28;19921;-76
2022/10/18 06:06:07;;;;;;;;;;;15.50;99.90;;;;;;4965164;28;19921;-76
2022/10/18 06:08:34;;;;;;;;;;;15.50;99.90;;;;;;4967718;28;20330;-77
2022/10/18 06:10:59;;;;;;;;;;;15.50;99.90;;;;;;4965797;28;19918;-77
2022/10/18 06:13:25;;;;;;;;;;;15.50;99.90;;;;;;4963250;28;19937;-78
2022/10/18 06:16:02;;;;;;;;;;;15.50;99.90;;;;;;4962234;28;20431;-78
2022/10/18 06:18:28;;;;;;;;;;;15.50;99.90;;;;;;4968169;28;19910;-76
2022/10/18 06:20:58;;;;;;;;;;;15.50;99.90;;;;;;4965659;28;20285;-76
2022/10/18 06:23:24;;;;;;;;;;;15.40;99.90;;;;;;4958648;28;19914;-76
2022/10/18 06:25:49;;;;;;;;;;;15.40;99.90;;;;;;4962730;28;20456;-76
2022/10/18 06:28:15;;;;;;;;;;;15.40;99.90;;;;;;4970164;28;19925;-76
2022/10/18 06:30:40;;;;;;;;;;;15.40;99.90;;;;;;4957167;28;19918;-76
2022/10/18 06:33:05;;;;;;;;;;;15.40;99.90;;;;;;4954419;28;19914;-76
2022/10/18 06:35:31;;;;;;;;;;;15.40;99.90;;;;;;4969323;28;19910;-76
2022/10/18 06:37:56;;;;;;;;;;;15.40;99.90;;;;;;4960535;28;20421;-76
2022/10/18 06:40:22;;;;;;;;;;;15.40;99.90;;;;;;4966938;28;19910;-77
2022/10/18 06:42:48;;;;;;;;;;;15.40;99.90;;;;;;4961042;28;19926;-79
2022/10/18 06:45:14;;;;;;;;;;;15.40;99.90;;;;;;4964755;28;19997;-77
2022/10/18 06:47:40;;;;;;;;;;;15.40;99.90;;;;;;4953126;28;19906;-88
2022/10/18 06:50:05;;;;;;;;;;;15.40;99.90;;;;;;4964823;28;19992;-77
2022/10/18 06:52:31;;;;;;;;;;;15.50;99.90;;;;;;4954850;28;19914;-74
2022/10/18 06:54:56;;;;;;;;;;;15.50;99.90;;;;;;4965587;28;19961;-83
2022/10/18 06:57:22;;;;;;;;;;;15.60;99.90;;;;;;4970832;28;20103;-83
2022/10/18 06:59:48;;;;;;;;;;;15.60;99.90;;;;;;4966672;28;19910;-75
2022/10/18 07:02:16;;;;;;;;;;;15.60;99.90;;;;;;4954853;28;20009;-80
2022/10/18 07:04:41;;;;;;;;;;;15.60;99.90;;;;;;4956640;28;19913;-79
2022/10/18 07:07:07;;;;;;;;;;;15.70;99.90;;;;;;4957769;28;19973;-82
2022/10/18 07:09:32;;;;;;;;;;;15.80;99.90;;;;;;4966473;28;19921;-83
2022/10/18 07:11:58;;;;;;;;;;;15.80;99.90;;;;;;4951552;28;19906;-82
2022/10/18 07:14:23;;;;;;;;;;;15.90;99.90;;;;;;4958096;28;19918;-77
2022/10/18 07:16:48;;;;;;;;;;;16.00;99.90;;;;;;4953812;28;19956;-82
2022/10/18 07:19:15;;;;;;;;;;;16.10;99.90;;;;;;4960924;28;19932;-77
2022/10/18 07:21:40;;;;;;;;;;;16.10;99.90;;;;;;4953436;28;19910;-77
2022/10/18 07:24:06;;;;;;;;;;;16.20;99.90;;;;;;4966901;28;20238;-76
2022/10/18 07:26:32;;;;;;;;;;;16.40;99.90;;;;;;4965784;28;19980;-78
2022/10/18 07:29:03;;;;;;;;;;;16.40;99.90;;;;;;4958113;28;19906;-77
2022/10/18 07:31:29;;;;;;;;;;;16.40;99.90;;;;;;4958039;28;19944;-78
2022/10/18 07:33:54;;;;;;;;;;;16.30;99.90;;;;;;4956934;28;19907;-78
2022/10/18 07:36:21;;;;;;;;;;;16.50;99.90;;;;;;4962677;28;19910;-77
2022/10/18 07:38:46;;;;;;;;;;;16.30;99.90;;;;;;4956276;28;19913;-79
2022/10/18 07:41:12;;;;;;;;;;;16.40;99.90;;;;;;4967801;28;19935;-80
2022/10/18 07:43:45;;;;;;;;;;;16.30;99.90;;;;;;4955907;28;19907;-77
2022/10/18 07:46:11;;;;;;;;;;;16.20;99.90;;;;;;4963818;28;19914;-79
2022/10/18 07:48:36;;;;;;;;;;;16.30;99.90;;;;;;4961806;28;19910;-85
2022/10/18 07:51:02;;;;;;;;;;;16.30;99.90;;;;;;4957903;28;19962;-77
2022/10/18 07:53:28;;;;;;;;;;;16.40;99.90;;;;;;4961644;28;20572;-78
2022/10/18 07:55:55;;;;;;;;;;;16.40;99.90;;;;;;4967098;28;19921;-90
2022/10/18 07:58:21;;;;;;;;;;;16.40;99.90;;;;;;4969944;28;19906;-89
2022/10/18 08:00:46;;;;;;;;;;;16.40;99.90;;;;;;4967522;28;19910;-90
2022/10/18 08:03:12;;;;;;;;;;;16.40;99.90;;;;;;4970805;28;20361;-83
2022/10/18 08:05:37;;;;;;;;;;;16.30;99.90;;;;;;4969714;28;20488;-80
2022/10/18 08:08:02;;;;;;;;;;;16.30;99.90;;;;;;4956962;28;19921;-83
2022/10/18 08:10:28;;;;;;;;;;;16.20;99.90;;;;;;4959462;28;19918;-82
2022/10/18 08:12:54;;;;;;;;;;;16.20;99.90;;;;;;4962271;28;19921;-84
2022/10/18 08:15:23;;;;;;;;;;;16.20;99.90;;;;;;4952900;28;19910;-79
2022/10/18 08:17:49;;;;;;;;;;;16.20;99.90;;;;;;4966264;28;19909;-83
2022/10/18 08:20:14;;;;;;;;;;;16.20;99.90;;;;;;4954681;28;20353;-87
2022/10/18 08:22:40;;;;;;;;;;;16.20;99.90;;;;;;4964027;28;19945;-80
2022/10/18 08:25:05;;;;;;;;;;;16.20;99.90;;;;;;4965514;28;20373;-91
2022/10/18 08:27:31;;;;;;;;;;;16.10;99.90;;;;;;4965998;28;19917;-83
2022/10/18 08:29:58;;;;;;;;;;;16.20;99.90;;;;;;4950734;28;20010;-91
2022/10/18 08:32:24;;;;;;;;;;;16.20;99.90;;;;;;4963310;28;20013;-84
2022/10/18 08:34:50;;;;;;;;;;;16.20;99.90;;;;;;4956459;28;19950;-84
2022/10/18 08:37:15;;;;;;;;;;;16.20;99.90;;;;;;4959946;28;20411;-83
2022/10/18 08:39:41;;;;;;;;;;;16.20;99.90;;;;;;4958547;28;20172;-84
2022/10/18 08:42:06;;;;;;;;;;;16.00;99.90;;;;;;4961511;28;20062;-84
2022/10/18 08:44:32;;;;;;;;;;;16.00;99.90;;;;;;4956783;28;20025;-84
2022/10/18 08:46:59;;;;;;;;;;;16.00;99.90;;;;;;4964441;28;20004;-84
2022/10/18 08:49:30;;;;;;;;;;;16.00;99.90;;;;;;4961875;28;19976;-86
2022/10/18 08:51:56;;;;;;;;;;;16.00;99.90;;;;;;4960627;28;19910;-90
2022/10/18 08:54:28;;;;;;;;;;;16.00;99.90;;;;;;4960223;28;21486;-86
2022/10/18 08:56:58;;;;;;;;;;;16.00;99.90;;;;;;4958397;28;20475;-86
2022/10/18 08:59:24;;;;;;;;;;;15.90;99.90;;;;;;4966265;28;19914;-90
2022/10/18 09:02:01;;;;;;;;;;;15.90;99.90;;;;;;4960350;28;19916;-88
2022/10/18 09:04:34;;;;;;;;;;;15.90;99.90;;;;;;4960739;28;19914;-82
2022/10/18 09:07:29;;;;;;;;;;;15.90;99.90;;;;;;4961217;28;19913;-77
2022/10/18 09:09:59;;;;;;;;;;;16.00;99.90;;;;;;4946160;28;19910;-77
2022/10/18 09:12:34;;;;;;;;;;;16.00;99.90;;;;;;4960170;28;19918;-84
2022/10/18 09:15:07;;;;;;;;;;;16.10;99.90;;;;;;4963424;28;20056;-78
2022/10/18 09:17:47;;;;;;;;;;;15.90;99.90;;;;;;4962151;28;20408;-78
2022/10/18 09:20:19;;;;;;;;;;;16.00;99.90;;;;;;4960264;28;19914;-77
2022/10/18 09:22:52;;;;;;;;;;;16.00;99.90;;;;;;4963674;28;20009;-78
2022/10/18 09:25:19;;;;;;;;;;;16.10;99.90;;;;;;4965445;28;19924;-78
2022/10/18 09:27:45;;;;;;;;;;;16.10;99.90;;;;;;4958860;28;19937;-76
2022/10/18 09:30:33;;;;;;;;;;;16.00;99.90;;;;;;4964540;28;19945;-78
2022/10/18 09:32:58;;;;;;;;;;;16.00;99.90;;;;;;4969246;28;19964;-79
2022/10/18 09:35:26;;;;;;;;;;;15.90;99.90;;;;;;4965590;28;19918;-76
2022/10/18 09:37:54;;;;;;;;;;;16.00;99.90;;;;;;4968812;28;19917;-87
2022/10/18 09:40:19;;;;;;;;;;;16.10;99.90;;;;;;4961751;28;19921;-82
2022/10/18 09:42:50;;;;;;;;;;;16.00;99.90;;;;;;4966448;28;19910;-85
2022/10/18 09:45:23;;;;;;;;;;;16.00;99.90;;;;;;4963577;28;19914;-82
2022/10/18 09:48:03;;;;;;;;;;;16.10;99.90;;;;;;4953126;28;20016;-79
2022/10/18 09:50:33;;;;;;;;;;;16.30;99.90;;;;;;4965834;28;20303;-80
2022/10/18 09:53:05;;;;;;;;;;;16.30;99.90;;;;;;4967745;28;20285;-89
2022/10/18 09:55:34;;;;;;;;;;;16.40;99.90;;;;;;4967637;28;20416;-81
2022/10/18 09:58:01;;;;;;;;;;;16.40;99.90;;;;;;4970157;28;20118;-74
2022/10/18 10:00:30;;;;;;;;;;;16.40;99.90;;;;;;4971500;28;20357;-77
2022/10/18 10:02:55;;;;;;;;;;;16.40;99.90;;;;;;4964458;28;19965;-78
2022/10/18 10:05:21;;;;;;;;;;;16.30;99.90;;;;;;4965872;28;19918;-80
2022/10/18 10:07:47;;;;;;;;;;;16.30;99.90;;;;;;4969884;28;19956;-86
2022/10/18 10:10:15;;;;;;;;;;;16.20;99.90;;;;;;4969623;28;20381;-84
2022/10/18 10:12:40;;;;;;;;;;;16.00;99.90;;;;;;4966700;28;19910;-83
2022/10/18 10:15:20;;;;;;;;;;;16.10;99.90;;;;;;4963721;28;19910;-84
2022/10/18 10:17:57;;;;;;;;;;;16.10;99.90;;;;;;4971522;28;19911;-81
2022/10/18 10:20:34;;;;;;;;;;;16.10;99.90;;;;;;4961795;28;19929;-81
2022/10/18 10:23:07;;;;;;;;;;;15.90;99.90;;;;;;4958981;28;19910;-81
2022/10/18 10:25:34;;;;;;;;;;;16.00;99.90;;;;;;4957304;28;19929;-78
2022/10/18 10:28:02;;;;;;;;;;;16.10;99.90;;;;;;4963577;28;20382;-87
2022/10/18 10:30:32;;;;;;;;;;;16.10;99.90;;;;;;4961868;28;19921;-81
2022/10/18 10:32:57;;;;;;;;;;;16.20;99.90;;;;;;4965529;28;19910;-84
2022/10/18 10:35:29;;;;;;;;;;;16.30;99.90;;;;;;4970644;28;19933;-81
2022/10/18 10:37:55;;;;;;;;;;;16.30;99.90;;;;;;4967359;28;20032;-83
2022/10/18 10:40:22;;;;;;;;;;;16.20;99.90;;;;;;4967868;28;20496;-84
2022/10/18 10:43:02;;;;;;;;;;;16.20;99.90;;;;;;4971781;28;19912;-79
2022/10/18 10:45:33;;;;;;;;;;;16.20;99.90;;;;;;4964025;28;19914;-77
2022/10/18 10:48:15;;;;;;;;;;;16.20;99.90;;;;;;4970187;28;19906;-82
2022/10/18 10:50:55;;;;;;;;;;;16.20;99.90;;;;;;4963311;28;20012;-83
2022/10/18 10:53:39;;;;;;;;;;;16.30;99.90;;;;;;4954400;28;19929;-84
2022/10/18 10:56:17;;;;;;;;;;;16.30;99.90;;;;;;4968300;28;19993;-86
2022/10/18 10:58:42;;;;;;;;;;;16.30;99.90;;;;;;4960597;28;19906;-79
2022/10/18 11:01:28;;;;;;;;;;;16.30;99.90;;;;;;4959709;28;19957;-76
2022/10/18 11:03:54;;;;;;;;;;;16.40;99.90;;;;;;4952220;28;19914;-75
2022/10/18 11:06:36;;;;;;;;;;;16.50;99.90;;;;;;4961189;28;19922;-77
2022/10/18 11:09:03;;;;;;;;;;;16.50;99.90;;;;;;4963787;28;20377;-86
2022/10/18 11:11:35;;;;;;;;;;;16.60;99.90;;;;;;4964857;28;20432;-83
2022/10/18 11:14:20;;;;;;;;;;;16.60;99.90;;;;;;4952279;28;19917;-87
2022/10/18 11:16:57;;;;;;;;;;;16.50;99.90;;;;;;4964393;28;19905;-75
2022/10/18 11:19:41;;;;;;;;;;;16.40;99.90;;;;;;4955132;28;19917;-78
2022/10/18 11:22:10;;;;;;;;;;;16.40;99.90;;;;;;4958883;28;19917;-85
2022/10/18 11:24:35;;;;;;;;;;;16.40;99.90;;;;;;4960474;28;19910;-83
2022/10/18 11:27:05;;;;;;;;;;;16.40;99.90;;;;;;4968005;28;20008;-87
2022/10/18 11:29:50;;;;;;;;;;;16.40;99.90;;;;;;4964258;28;19911;-82
2022/10/18 11:32:24;;;;;;;;;;;16.50;99.90;;;;;;4959090;28;20011;-77
2022/10/18 11:34:58;;;;;;;;;;;16.40;99.90;;;;;;4967206;28;20001;-76
2022/10/18 11:37:50;;;;;;;;;;;16.30;99.90;;;;;;4953584;28;20285;-76
2022/10/18 11:40:25;;;;;;;;;;;16.40;99.90;;;;;;4956316;28;20349;-76
2022/10/18 11:43:02;;;;;;;;;;;16.60;99.90;;;;;;4968756;28;20358;-76
2022/10/18 11:45:34;;;;;;;;;;;16.40;99.90;;;;;;4953563;28;19925;-77
2022/10/18 11:48:19;;;;;;;;;;;16.60;99.90;;;;;;4968765;28;19914;-78
2022/10/18 11:51:03;;;;;;;;;;;16.70;99.90;;;;;;4959597;28;19941;-76
2022/10/18 11:53:35;;;;;;;;;;;16.90;99.90;;;;;;4963609;28;19916;-78
2022/10/18 11:56:09;;;;;;;;;;;16.90;99.90;;;;;;4956567;28;20622;-82
2022/10/18 11:58:46;;;;;;;;;;;17.00;99.90;;;;;;4958025;28;19914;-78
2022/10/18 12:01:11;;;;;;;;;;;17.10;99.90;;;;;;4968800;28;19957;-78
2022/10/18 12:03:49;;;;;;;;;;;16.90;99.90;;;;;;4958383;28;19914;-79
2022/10/18 12:06:16;;;;;;;;;;;16.70;99.90;;;;;;4960558;28;19918;-79
2022/10/18 12:08:44;;;;;;;;;;;16.70;99.90;;;;;;4965779;28;19949;-87
2022/10/18 12:11:14;;;;;;;;;;;16.90;99.90;;;;;;4961437;28;19911;-80
2022/10/18 12:13:45;;;;;;;;;;;16.90;99.90;;;;;;4952503;28;19910;-80
2022/10/18 12:16:11;;;;;;;;;;;16.90;99.90;;;;;;4955554;28;20424;-84
2022/10/18 12:18:44;;;;;;;;;;;16.80;99.90;;;;;;4960443;28;19922;-84
2022/10/18 12:21:10;;;;;;;;;;;16.60;99.90;;;;;;4960346;28;19910;-78
2022/10/18 12:23:50;;;;;;;;;;;16.60;99.90;;;;;;4950312;28;19907;-79
2022/10/18 12:26:15;;;;;;;;;;;16.60;99.90;;;;;;4961559;28;19921;-78
2022/10/18 12:29:05;;;;;;;;;;;16.60;99.90;;;;;;4959067;28;19910;-80
2022/10/18 12:31:37;;;;;;;;;;;16.60;99.90;;;;;;4960358;28;19980;-82
2022/10/18 12:34:23;;;;;;;;;;;16.60;99.90;;;;;;4963847;28;20507;-76
2022/10/18 12:36:54;;;;;;;;;;;16.60;99.90;;;;;;4962902;28;20427;-76
2022/10/18 12:39:25;;;;;;;;;;;16.80;99.90;;;;;;4961447;28;19911;-79
2022/10/18 12:41:53;;;;;;;;;;;16.90;99.90;;;;;;4954113;28;19997;-77
2022/10/18 12:44:30;;;;;;;;;;;17.10;99.90;;;;;;4962279;28;19910;-79
2022/10/18 12:46:59;;;;;;;;;;;16.90;99.90;;;;;;4957056;28;19921;-79
2022/10/18 12:49:30;;;;;;;;;;;16.80;99.90;;;;;;4957506;28;20288;-82
2022/10/18 12:51:58;;;;;;;;;;;16.80;99.90;;;;;;4956576;28;19984;-79
2022/10/18 12:54:28;;;;;;;;;;;17.10;99.90;;;;;;4965144;28;19906;-81
2022/10/18 12:56:53;;;;;;;;;;;16.80;99.90;;;;;;4954329;28;20658;-80
2022/10/18 12:59:22;;;;;;;;;;;16.70;99.90;;;;;;4963695;28;20408;-84
2022/10/18 13:01:50;;;;;;;;;;;16.80;99.90;;;;;;4965906;28;20288;-81
2022/10/18 13:04:28;;;;;;;;;;;16.80;99.90;;;;;;4964314;28;19910;-82
2022/10/18 13:06:59;;;;;;;;;;;16.90;99.90;;;;;;4964624;28;19929;-80
2022/10/18 13:09:26;;;;;;;;;;;16.70;99.90;;;;;;4969400;28;19996;-76
2022/10/18 13:11:54;;;;;;;;;;;16.90;99.90;;;;;;4967698;28;19910;-80
2022/10/18 13:14:34;;;;;;;;;;;16.90;99.90;;;;;;4972618;28;19906;-80
2022/10/18 13:17:15;;;;;;;;;;;17.00;99.90;;;;;;4963661;28;19917;-79
2022/10/18 13:19:58;;;;;;;;;;;17.00;99.90;;;;;;4970517;28;20499;-86
2022/10/18 13:22:27;;;;;;;;;;;17.00;99.90;;;;;;4968188;28;20373;-83
2022/10/18 13:25:02;;;;;;;;;;;17.30;99.90;;;;;;4968118;28;19961;-84
2022/10/18 13:27:43;;;;;;;;;;;17.70;99.90;;;;;;4961384;28;20720;-83
2022/10/18 13:30:26;;;;;;;;;;;18.00;99.90;;;;;;4968392;28;19968;-82
2022/10/18 13:33:03;;;;;;;;;;;18.20;99.90;;;;;;4958984;28;20305;-82
2022/10/18 13:36:04;;;;;;;;;;;18.30;99.90;;;;;;4958032;28;20118;-81
2022/10/18 13:38:36;;;;;;;;;;;18.00;99.90;;;;;;4930742;29;19918;-79
2022/10/18 13:41:12;;;;;;;;;;;17.70;99.90;;;;;;4947632;28;20297;-82
2022/10/18 13:43:46;;;;;;;;;;;17.60;99.90;;;;;;4961891;28;19916;-82
2022/10/18 13:46:12;;;;;;;;;;;18.70;99.90;;;;;;4966434;28;20501;-81
2022/10/18 13:48:37;;;;;;;;;;;21.80;99.90;;;;;;4969053;28;19914;-81
2022/10/18 13:51:14;;;;;;;;;;;22.90;99.90;;;;;;4968798;28;19906;-86
2022/10/18 13:54:04;;;;;;;;;;;22.30;99.90;;;;;;4965374;28;20377;-83
2022/10/18 13:56:40;;;;;;;;;;;22.00;99.90;;;;;;4960370;28;19914;-79
2022/10/18 13:59:13;;;;;;;;;;;21.60;99.90;;;;;;4964088;28;21030;-86
2022/10/18 14:01:59;;;;;;;;;;;20.00;99.90;;;;;;4970434;28;20493;-88
2022/10/18 14:04:24;;;;;;;;;;;19.00;99.90;;;;;;4945980;28;19910;-76
2022/10/18 14:06:50;;;;;;;;;;;18.10;99.90;;;;;;4961514;28;19983;-74
2022/10/18 14:09:22;;;;;;;;;;;17.50;99.90;;;;;;4966705;28;19941;-77
2022/10/18 14:11:52;;;;;;;;;;;17.70;99.90;;;;;;4961486;28;19929;-76
2022/10/18 14:14:29;;;;;;;;;;;18.30;99.90;;;;;;4971036;28;19964;-76
2022/10/18 14:17:09;;;;;;;;;;;18.40;99.90;;;;;;4971483;28;20365;-76
2022/10/18 14:19:39;;;;;;;;;;;18.80;99.90;;;;;;4961067;28;19914;-76
2022/10/18 14:22:20;;;;;;;;;;;21.20;99.90;;;;;;4964966;28;19910;-76
2022/10/18 14:25:08;;;;;;;;;;;23.50;99.90;;;;;;4960412;28;19993;-76
2022/10/18 14:27:35;;;;;;;;;;;23.40;99.50;;;;;;4963026;28;19928;-76
2022/10/18 14:30:18;;;;;;;;;;;24.80;93.80;;;;;;4968369;23;19976;-76